Portada
METAR-TAF:

METAR-TAF

Aeropuertos :

Benson, Minnesota, Estados Unidos

latitud: 45-19N, longitud: 095-39W, altitud: 317 m

Observación

El informe se hizo hace 11 minutos, a las 07:42 UTC
Viento calma
Temperatura 9°C
Humedad 61%
Presión 1025 hPa
Visibilidad: 16.1 km
Cielo despejado

METAR: KBBB 310742Z AUTO 00000KT 10SM CLR 09/02 A3028 RMK AO2

Hora: 02:53 (07:53 UTC)


TAF: falta

Observaciones y pronósticos meteorológicos de más de 4000 aeropuertos (mensajes METAR y TAF).

Los puntos amarillos y rojos representan las estaciones disponibles.

Ponga el ratón en el punto deseado para ver el nombre de la estación.

Haga clic para ver las observaciones y los pronósticos meteorológicos.

Para cambiar el mapa : haga clic en los botones verdes con una cruz de color negro para hacer un zoom, en el botón verde con un guión para alejar o en las flechas verdes para mapas adyacentes.


METAR-TAF: